Time;durP1;ratioP1;P1;durP2;ratioP2;P2;SDS_P1;SDS_P2;PMS_P1;PMS_P2;Temp;Humidity;BMP_temperature;BMP_pressure;BME280_temperature;BME280_humidity;BME280_pressure;Samples;Min_cycle;Max_cycle;Signal;HPM_P1;HPM_P2
2023/05/01 00:00:49;;;;;;;2.95;2.65;;;12.60;99.90;;;;;;5054189;28;20021;-77
2023/05/01 00:03:16;;;;;;;3.33;2.20;;;12.60;99.90;;;;;;5053515;28;20067;-77
2023/05/01 00:05:43;;;;;;;2.60;2.08;;;12.50;99.90;;;;;;5054037;28;20033;-76
2023/05/01 00:08:10;;;;;;;5.25;2.33;;;12.50;99.90;;;;;;5053968;28;20025;-76
2023/05/01 00:10:36;;;;;;;2.72;2.00;;;12.40;99.90;;;;;;5053159;28;20025;-76
2023/05/01 00:13:02;;;;;;;2.30;2.10;;;12.40;99.90;;;;;;5053544;28;20497;-76
2023/05/01 00:15:28;;;;;;;2.35;1.70;;;12.40;99.90;;;;;;5035213;28;20029;-76
2023/05/01 00:17:54;;;;;;;2.40;1.80;;;12.50;99.90;;;;;;5053210;28;20029;-76
2023/05/01 00:20:22;;;;;;;1.52;1.40;;;12.40;99.90;;;;;;5052649;28;20028;-77
2023/05/01 00:22:48;;;;;;;2.55;1.80;;;12.50;99.90;;;;;;5053010;28;20100;-76
2023/05/01 00:25:14;;;;;;;4.57;2.03;;;12.40;99.90;;;;;;5053951;28;20482;-77
2023/05/01 00:27:39;;;;;;;2.85;1.60;;;12.40;99.90;;;;;;5035324;28;20450;-76
2023/05/01 00:30:06;;;;;;;3.50;1.40;;;12.50;99.90;;;;;;5053764;28;20080;-76
2023/05/01 00:32:33;;;;;;;2.63;1.45;;;12.40;99.90;;;;;;5053112;28;20037;-76
2023/05/01 00:34:59;;;;;;;5.80;1.67;;;12.50;99.90;;;;;;5053787;28;20403;-76
2023/05/01 00:37:24;;;;;;;3.40;1.40;;;12.40;99.90;;;;;;5053126;28;20169;-77
2023/05/01 00:39:50;;;;;;;3.40;1.20;;;12.40;99.90;;;;;;5053159;28;20459;-76
2023/05/01 00:42:16;;;;;;;2.97;1.27;;;12.40;99.90;;;;;;5052766;28;20032;-77
2023/05/01 00:44:42;;;;;;;2.88;0.98;;;12.40;99.90;;;;;;5053126;28;20477;-76
2023/05/01 00:47:07;;;;;;;2.47;0.93;;;12.40;99.90;;;;;;5053146;28;20029;-77
2023/05/01 00:49:33;;;;;;;3.60;1.40;;;12.30;99.90;;;;;;5052734;28;20481;-77
2023/05/01 00:51:59;;;;;;;1.73;0.85;;;12.30;99.90;;;;;;5053207;28;20033;-76
2023/05/01 00:54:27;;;;;;;1.90;1.10;;;12.30;99.90;;;;;;5051931;28;20104;-76
2023/05/01 00:56:53;;;;;;;2.28;0.93;;;12.30;99.90;;;;;;5034970;28;20111;-76
2023/05/01 00:59:19;;;;;;;1.48;0.90;;;12.20;99.90;;;;;;5052517;28;20056;-77
2023/05/01 01:01:46;;;;;;;2.33;1.15;;;12.30;99.90;;;;;;5052888;28;20036;-76
2023/05/01 01:04:12;;;;;;;2.33;1.10;;;12.20;99.90;;;;;;5052640;28;20103;-76
2023/05/01 01:06:52;;;;;;;1.52;1.30;;;12.20;99.90;;;;;;5052130;28;20017;-76
2023/05/01 01:09:46;;;;;;;2.17;1.15;;;12.20;99.90;;;;;;5052328;28;20032;-77
2023/05/01 01:12:31;;;;;;;3.63;1.35;;;12.20;99.90;;;;;;5052760;28;20033;-76
2023/05/01 01:15:19;;;;;;;1.90;1.10;;;12.30;99.90;;;;;;5052798;28;20052;-76
2023/05/01 01:17:55;;;;;;;4.78;1.63;;;12.30;99.90;;;;;;5052754;28;20037;-76
2023/05/01 01:20:32;;;;;;;1.83;1.00;;;12.30;99.90;;;;;;5051892;28;20021;-76
2023/05/01 01:23:38;;;;;;;1.63;1.20;;;12.20;99.90;;;;;;5052863;28;20060;-76
2023/05/01 01:26:12;;;;;;;2.05;1.60;;;12.20;99.90;;;;;;5051782;28;20486;-75
2023/05/01 01:28:56;;;;;;;2.60;1.58;;;12.20;99.90;;;;;;5051472;28;20053;-76
2023/05/01 01:31:44;;;;;;;2.60;1.40;;;12.20;99.90;;;;;;5053415;28;20025;-76
2023/05/01 01:34:18;;;;;;;5.60;1.38;;;12.20;99.90;;;;;;5054951;28;20036;-75
2023/05/01 01:37:07;;;;;;;1.90;1.70;;;12.10;99.90;;;;;;5054521;28;20111;-76
2023/05/01 01:39:56;;;;;;;2.97;1.63;;;12.10;99.90;;;;;;5054093;28;20059;-76
2023/05/01 01:42:29;;;;;;;2.58;1.50;;;12.20;99.90;;;;;;5054426;28;20025;-76
2023/05/01 01:44:58;;;;;;;4.03;1.48;;;12.20;99.90;;;;;;5055539;28;20553;-76
2023/05/01 01:47:30;;;;;;;2.83;1.70;;;12.20;99.90;;;;;;5054794;28;20040;-76
2023/05/01 01:49:58;;;;;;;4.50;1.65;;;12.20;99.90;;;;;;5054834;28;20394;-76
2023/05/01 01:52:26;;;;;;;1.80;1.70;;;12.20;99.90;;;;;;5054251;28;20032;-76
2023/05/01 01:54:57;;;;;;;2.28;1.80;;;12.20;99.90;;;;;;5054808;28;20025;-75
2023/05/01 01:57:24;;;;;;;2.40;2.03;;;12.20;99.90;;;;;;5054375;28;20021;-76
2023/05/01 01:59:50;;;;;;;5.60;1.95;;;12.30;99.90;;;;;;5054897;28;20033;-76
2023/05/01 02:02:19;;;;;;;4.47;2.17;;;12.30;99.90;;;;;;5036997;28;20359;-76
2023/05/01 02:04:46;;;;;;;3.28;2.20;;;12.30;99.90;;;;;;5054306;28;20029;-76
2023/05/01 02:07:15;;;;;;;4.68;2.38;;;12.30;99.90;;;;;;5037585;28;20078;-76
2023/05/01 02:09:43;;;;;;;8.15;2.83;;;12.30;99.90;;;;;;5036512;28;20039;-76
2023/05/01 02:12:10;;;;;;;3.47;2.72;;;12.30;99.90;;;;;;5054930;28;20112;-76
2023/05/01 02:14:36;;;;;;;4.40;2.60;;;12.30;99.90;;;;;;5054150;28;20074;-76
2023/05/01 02:17:03;;;;;;;5.43;2.92;;;12.30;99.90;;;;;;5054630;28;20025;-76
2023/05/01 02:19:32;;;;;;;4.07;2.78;;;12.30;99.90;;;;;;5053965;28;20394;-76
2023/05/01 02:21:59;;;;;;;6.88;2.72;;;12.40;99.90;;;;;;5054342;28;20079;-76
2023/05/01 02:24:27;;;;;;;5.03;2.63;;;12.30;99.90;;;;;;5054146;28;20102;-77
2023/05/01 02:27:00;;;;;;;9.05;2.83;;;12.30;99.90;;;;;;5055255;28;20017;-76
2023/05/01 02:29:26;;;;;;;6.85;2.63;;;12.30;99.90;;;;;;4989750;28;1358426;-77
2023/05/01 02:31:52;;;;;;;5.63;2.55;;;12.30;99.90;;;;;;5055829;28;20037;-76
2023/05/01 02:34:17;;;;;;;6.60;2.72;;;12.30;99.90;;;;;;5055751;28;20520;-76
2023/05/01 02:36:43;;;;;;;4.80;3.00;;;12.40;99.90;;;;;;5055016;28;20474;-76
2023/05/01 02:39:09;;;;;;;6.43;3.00;;;12.40;99.90;;;;;;5055649;28;20462;-76
2023/05/01 02:41:37;;;;;;;4.63;2.80;;;12.30;99.90;;;;;;5054641;28;20377;-76
2023/05/01 02:44:05;;;;;;;3.58;2.53;;;12.30;99.90;;;;;;5055369;28;20025;-76
2023/05/01 02:46:34;;;;;;;4.68;2.35;;;12.30;99.90;;;;;;5055312;28;20103;-77
2023/05/01 02:49:02;;;;;;;4.80;2.42;;;12.30;99.90;;;;;;5055625;28;20021;-76
2023/05/01 02:51:28;;;;;;;5.68;2.53;;;12.40;99.90;;;;;;5054459;28;20033;-76
2023/05/01 02:53:55;;;;;;;5.25;2.78;;;12.40;99.90;;;;;;5054829;28;20035;-76
2023/05/01 02:56:21;;;;;;;5.05;2.70;;;12.30;99.90;;;;;;5055029;28;20463;-76
2023/05/01 02:58:50;;;;;;;5.82;2.83;;;12.30;99.90;;;;;;5054700;28;20025;-76
2023/05/01 03:01:16;;;;;;;4.82;3.17;;;12.30;99.90;;;;;;5054675;28;20447;-76
2023/05/01 03:03:42;;;;;;;5.00;2.55;;;12.20;99.90;;;;;;5054060;28;20060;-77
2023/05/01 03:06:08;;;;;;;6.18;2.70;;;12.20;99.90;;;;;;5055176;28;20021;-76
2023/05/01 03:08:35;;;;;;;5.47;2.95;;;12.20;99.90;;;;;;5054301;28;20029;-76
2023/05/01 03:11:04;;;;;;;3.30;2.25;;;12.20;99.90;;;;;;5036711;28;20091;-76
2023/05/01 03:13:30;;;;;;;4.90;2.88;;;12.20;99.90;;;;;;5053955;28;20500;-76
2023/05/01 03:15:55;;;;;;;5.85;3.00;;;12.20;99.90;;;;;;5054785;28;20061;-76
2023/05/01 03:18:21;;;;;;;8.07;2.97;;;12.10;99.90;;;;;;5054570;28;20094;-76
2023/05/01 03:20:52;;;;;;;3.88;2.67;;;12.10;99.90;;;;;;5054172;28;20029;-76
2023/05/01 03:23:18;;;;;;;7.97;2.95;;;12.20;99.90;;;;;;5054782;28;20108;-76
2023/05/01 03:25:43;;;;;;;6.07;2.75;;;12.20;99.90;;;;;;5053583;28;20111;-76
2023/05/01 03:28:09;;;;;;;4.90;3.00;;;12.20;99.90;;;;;;5054259;28;20458;-76
2023/05/01 03:30:35;;;;;;;5.57;2.83;;;12.20;99.90;;;;;;5053941;28;20122;-76
2023/05/01 03:33:01;;;;;;;5.05;2.60;;;12.20;99.90;;;;;;5054093;28;20037;-75
2023/05/01 03:35:27;;;;;;;3.95;2.78;;;12.20;99.90;;;;;;5054465;28;20024;-77
2023/05/01 03:37:53;;;;;;;4.43;2.63;;;12.20;99.90;;;;;;5054145;28;20036;-77
2023/05/01 03:40:18;;;;;;;4.95;2.90;;;12.30;99.90;;;;;;5054107;28;20029;-76
2023/05/01 03:42:44;;;;;;;6.65;2.75;;;12.40;99.90;;;;;;5053801;28;20060;-76
2023/05/01 03:45:10;;;;;;;5.50;2.75;;;12.30;99.90;;;;;;5054193;28;20060;-76
2023/05/01 03:47:36;;;;;;;5.40;3.40;;;12.30;99.90;;;;;;5053580;28;20029;-77
2023/05/01 03:50:02;;;;;;;6.00;3.08;;;12.30;99.90;;;;;;5054297;28;20056;-76
2023/05/01 03:52:28;;;;;;;7.45;3.55;;;12.30;99.90;;;;;;5053054;28;20040;-77
2023/05/01 03:54:53;;;;;;;5.10;3.03;;;12.30;99.90;;;;;;5053162;28;20033;-76
2023/05/01 03:57:25;;;;;;;3.45;2.83;;;12.30;99.90;;;;;;5054010;28;20036;-76
2023/05/01 03:59:52;;;;;;;5.95;3.35;;;12.30;99.90;;;;;;5055372;28;20025;-76
2023/05/01 04:02:17;;;;;;;3.72;2.75;;;12.30;99.90;;;;;;5057988;28;20033;-76
2023/05/01 04:04:44;;;;;;;10.25;3.38;;;12.20;99.90;;;;;;5039740;28;20040;-76
2023/05/01 04:07:10;;;;;;;5.40;3.03;;;12.20;99.90;;;;;;5057878;28;20378;-77
2023/05/01 04:09:36;;;;;;;3.85;2.80;;;12.20;99.90;;;;;;5057346;28;20032;-77
2023/05/01 04:12:02;;;;;;;3.42;2.80;;;12.20;99.90;;;;;;5057476;28;20025;-75
2023/05/01 04:14:28;;;;;;;3.47;2.92;;;12.20;99.90;;;;;;5056566;28;20081;-77
2023/05/01 04:16:54;;;;;;;4.55;3.00;;;12.20;99.90;;;;;;5038102;28;20033;-77
2023/05/01 04:19:19;;;;;;;4.13;2.55;;;12.20;99.90;;;;;;5056393;28;20076;-77
2023/05/01 04:21:46;;;;;;;4.47;2.60;;;12.10;99.90;;;;;;5038365;28;20035;-77
2023/05/01 04:24:12;;;;;;;2.97;2.67;;;12.20;99.90;;;;;;5055213;28;20028;-77
2023/05/01 04:26:38;;;;;;;3.83;2.58;;;12.20;99.90;;;;;;5054194;28;20108;-77
2023/05/01 04:29:04;;;;;;;4.10;2.65;;;12.20;99.90;;;;;;5036102;28;20044;-77
2023/05/01 04:31:30;;;;;;;3.92;2.40;;;12.10;99.90;;;;;;5054009;28;20072;-77
2023/05/01 04:33:55;;;;;;;3.35;2.63;;;12.20;99.90;;;;;;5053368;28;20056;-77
2023/05/01 04:36:21;;;;;;;3.92;2.65;;;12.10;99.90;;;;;;5053540;28;20032;-77
2023/05/01 04:38:47;;;;;;;4.07;2.97;;;12.10;99.90;;;;;;5054801;28;20386;-77
2023/05/01 04:41:13;;;;;;;4.13;2.75;;;12.20;99.90;;;;;;5036131;28;20071;-77
2023/05/01 04:43:39;;;;;;;5.10;2.75;;;12.20;99.90;;;;;;5055576;28;20028;-77
2023/05/01 04:46:05;;;;;;;4.70;2.97;;;12.20;99.90;;;;;;5036028;28;20467;-78
2023/05/01 04:48:30;;;;;;;3.45;2.42;;;12.10;99.90;;;;;;5053774;28;20036;-77
2023/05/01 04:50:57;;;;;;;4.88;2.70;;;12.10;99.90;;;;;;5053782;28;20036;-76
2023/05/01 04:53:23;;;;;;;3.92;2.83;;;12.10;99.90;;;;;;5053517;28;20032;-76
2023/05/01 04:55:49;;;;;;;4.22;2.67;;;12.20;99.90;;;;;;5052594;28;20029;-76
2023/05/01 04:58:14;;;;;;;3.65;2.58;;;12.20;99.90;;;;;;5035304;28;20040;-75
2023/05/01 05:00:40;;;;;;;3.65;2.50;;;12.20;99.90;;;;;;5052370;28;20025;-76
2023/05/01 05:03:06;;;;;;;5.47;2.70;;;12.20;99.90;;;;;;5052937;28;20390;-76
2023/05/01 05:05:32;;;;;;;2.75;2.15;;;12.30;99.90;;;;;;5052496;28;20119;-76
2023/05/01 05:07:58;;;;;;;2.80;2.15;;;12.20;99.90;;;;;;5052805;28;20027;-76
2023/05/01 05:10:24;;;;;;;3.28;2.20;;;12.20;99.90;;;;;;5052782;28;20036;-76
2023/05/01 05:12:50;;;;;;;3.03;2.22;;;12.20;99.90;;;;;;5034583;28;20021;-76
2023/05/01 05:15:16;;;;;;;4.15;2.45;;;12.20;99.90;;;;;;5053127;28;20071;-76
2023/05/01 05:17:41;;;;;;;2.63;2.10;;;12.20;99.90;;;;;;5052668;28;20491;-76
2023/05/01 05:20:07;;;;;;;4.88;2.05;;;12.20;99.90;;;;;;5052455;28;20025;-76
2023/05/01 05:22:36;;;;;;;2.25;2.00;;;12.20;99.90;;;;;;5034441;28;20040;-77
2023/05/01 05:25:04;;;;;;;3.53;2.05;;;12.30;99.90;;;;;;5052419;28;20021;-76
2023/05/01 05:27:35;;;;;;;3.75;1.60;;;12.30;99.90;;;;;;5052411;28;20025;-76
2023/05/01 05:30:01;;;;;;;3.47;1.88;;;12.30;99.90;;;;;;5052487;28;20085;-76
2023/05/01 05:32:27;;;;;;;2.63;1.60;;;12.30;99.90;;;;;;5052505;28;20025;-77
2023/05/01 05:34:53;;;;;;;2.28;1.50;;;12.30;99.90;;;;;;5034532;28;20811;-77
2023/05/01 05:37:19;;;;;;;2.30;1.33;;;12.20;99.90;;;;;;5052795;28;20032;-76
2023/05/01 05:39:44;;;;;;;2.03;1.27;;;12.30;99.90;;;;;;5052233;28;20103;-77
2023/05/01 05:42:10;;;;;;;1.33;1.20;;;12.20;99.90;;;;;;5034923;28;20032;-77
2023/05/01 05:44:36;;;;;;;2.47;1.70;;;12.20;99.90;;;;;;5052246;28;20025;-78
2023/05/01 05:47:02;;;;;;;1.63;1.13;;;12.30;99.90;;;;;;5052074;28;20159;-77
2023/05/01 05:49:28;;;;;;;1.13;0.90;;;12.30;99.90;;;;;;5052417;28;20025;-77
2023/05/01 05:51:53;;;;;;;2.85;1.45;;;12.30;99.90;;;;;;5051829;28;20112;-77
2023/05/01 05:54:19;;;;;;;4.50;1.50;;;12.30;99.90;;;;;;5052345;28;20105;-77
2023/05/01 05:56:45;;;;;;;1.27;1.17;;;12.30;99.90;;;;;;5051716;28;20116;-76
2023/05/01 05:59:10;;;;;;;1.02;1.00;;;12.40;99.90;;;;;;5052791;28;20433;-76
2023/05/01 06:01:36;;;;;;;1.90;1.38;;;12.40;99.90;;;;;;5034902;28;20112;-77
2023/05/01 06:04:02;;;;;;;1.63;1.30;;;12.40;99.90;;;;;;5052635;28;20458;-76
2023/05/01 06:06:28;;;;;;;2.78;1.40;;;12.40;99.90;;;;;;5052641;28;20025;-77
2023/05/01 06:08:54;;;;;;;2.65;1.33;;;12.40;99.90;;;;;;5052120;28;20025;-76
2023/05/01 06:11:20;;;;;;;2.22;1.40;;;12.40;99.90;;;;;;5052359;28;20108;-77
2023/05/01 06:13:46;;;;;;;1.85;1.38;;;12.40;99.90;;;;;;5033836;28;20029;-76
2023/05/01 06:16:12;;;;;;;1.88;1.17;;;12.50;99.90;;;;;;5053181;28;20056;-76
2023/05/01 06:18:37;;;;;;;2.95;1.40;;;12.40;99.90;;;;;;5037928;28;20098;-78
2023/05/01 06:21:03;;;;;;;1.60;1.50;;;12.40;99.90;;;;;;5055837;28;20097;-76
2023/05/01 06:23:30;;;;;;;5.68;4.00;;;12.40;99.90;;;;;;5055945;28;20032;-76
2023/05/01 06:25:55;;;;;;;3.72;2.90;;;12.50;99.90;;;;;;5037394;28;20095;-77
2023/05/01 06:28:21;;;;;;;3.72;1.80;;;12.50;99.90;;;;;;5055994;28;20170;-76
2023/05/01 06:30:47;;;;;;;4.30;2.70;;;12.50;99.90;;;;;;5037469;28;20120;-77
2023/05/01 06:33:13;;;;;;;8.85;5.90;;;12.40;99.90;;;;;;5055257;28;20491;-77
2023/05/01 06:35:39;;;;;;;5.95;2.10;;;12.50;99.90;;;;;;5055298;28;20029;-77
2023/05/01 06:38:05;;;;;;;2.72;1.40;;;12.40;99.90;;;;;;5037521;28;20033;-76
2023/05/01 06:40:33;;;;;;;4.00;2.38;;;12.40;99.90;;;;;;5055870;28;20029;-76
2023/05/01 06:43:00;;;;;;;3.92;1.58;;;12.40;99.90;;;;;;5054833;28;20067;-76
2023/05/01 06:45:25;;;;;;;2.10;1.63;;;12.40;99.90;;;;;;5055457;28;20017;-77
2023/05/01 06:47:51;;;;;;;2.70;1.50;;;12.40;99.90;;;;;;5037059;28;20458;-77
2023/05/01 06:50:17;;;;;;;2.58;1.70;;;12.50;99.90;;;;;;5037588;28;20061;-77
2023/05/01 06:52:43;;;;;;;3.25;1.50;;;12.50;99.90;;;;;;5054599;28;20409;-77
2023/05/01 06:55:09;;;;;;;2.10;1.50;;;12.40;99.90;;;;;;5055156;28;20462;-76
2023/05/01 06:57:34;;;;;;;2.80;1.33;;;12.50;99.90;;;;;;5055126;28;20109;-76
2023/05/01 07:00:00;;;;;;;4.88;1.48;;;12.50;99.90;;;;;;5054927;28;20056;-76
2023/05/01 07:02:26;;;;;;;2.15;0.93;;;12.60;99.90;;;;;;5054687;28;20043;-76
2023/05/01 07:04:52;;;;;;;1.90;1.42;;;12.60;99.90;;;;;;5035226;28;20073;-77
2023/05/01 07:07:18;;;;;;;2.05;1.20;;;12.70;99.90;;;;;;5054722;28;20413;-77
2023/05/01 07:09:43;;;;;;;1.45;1.00;;;12.70;99.90;;;;;;5036225;28;20164;-77
2023/05/01 07:12:09;;;;;;;2.17;1.00;;;12.70;99.90;;;;;;5054525;28;20048;-77
2023/05/01 07:14:35;;;;;;;2.97;1.00;;;12.80;99.90;;;;;;5054693;28;20128;-77
2023/05/01 07:17:01;;;;;;;3.00;1.00;;;12.90;99.90;;;;;;5054183;28;20021;-76
2023/05/01 07:19:27;;;;;;;2.58;1.17;;;12.90;99.90;;;;;;5054554;28;20025;-76
2023/05/01 07:21:53;;;;;;;2.70;1.13;;;13.00;99.90;;;;;;5054122;28;20073;-76
2023/05/01 07:24:20;;;;;;;3.53;1.00;;;13.10;99.90;;;;;;5054595;28;20044;-77
2023/05/01 07:26:46;;;;;;;1.17;0.82;;;13.20;99.90;;;;;;5053951;28;20103;-76
2023/05/01 07:29:12;;;;;;;3.55;0.70;;;13.30;99.90;;;;;;5053947;28;20127;-76
2023/05/01 07:31:38;;;;;;;1.30;0.70;;;13.30;99.90;;;;;;5036996;28;20029;-76
2023/05/01 07:34:03;;;;;;;2.45;0.80;;;13.40;99.90;;;;;;5053707;28;20036;-76
2023/05/01 07:36:29;;;;;;;1.05;0.55;;;13.40;99.90;;;;;;5054796;28;20570;-76
2023/05/01 07:38:56;;;;;;;1.20;0.57;;;13.40;99.90;;;;;;5054209;28;20055;-77
2023/05/01 07:41:23;;;;;;;3.35;0.90;;;13.40;99.90;;;;;;5036941;28;20466;-76
2023/05/01 07:43:49;;;;;;;1.48;0.63;;;13.40;99.90;;;;;;5053659;28;20033;-76
2023/05/01 07:46:15;;;;;;;1.30;0.70;;;13.40;99.90;;;;;;5053785;28;20466;-76
2023/05/01 07:48:41;;;;;;;3.22;1.48;;;13.40;99.90;;;;;;5053983;28;20032;-76
2023/05/01 07:51:07;;;;;;;3.15;1.20;;;13.40;99.90;;;;;;5053210;28;20040;-76
2023/05/01 07:53:33;;;;;;;2.70;1.00;;;13.40;99.90;;;;;;5036016;28;20116;-76
2023/05/01 07:56:08;;;;;;;0.77;0.60;;;13.40;99.90;;;;;;5053403;28;20032;-76
2023/05/01 07:58:35;;;;;;;1.90;0.60;;;13.40;99.90;;;;;;5053556;28;20397;-77
2023/05/01 08:01:02;;;;;;;0.98;0.70;;;13.50;99.90;;;;;;5053083;28;20025;-76
2023/05/01 08:03:29;;;;;;;1.42;0.70;;;13.50;99.90;;;;;;5053400;28;20025;-77
2023/05/01 08:05:55;;;;;;;4.60;0.90;;;13.60;99.90;;;;;;5053164;28;20037;-77
2023/05/01 08:08:21;;;;;;;3.17;0.60;;;13.70;99.90;;;;;;5053456;28;20448;-77
2023/05/01 08:10:47;;;;;;;3.53;0.70;;;13.90;99.90;;;;;;5052686;28;20478;-77
2023/05/01 08:13:13;;;;;;;1.38;0.60;;;14.00;99.90;;;;;;5035544;28;20037;-77
2023/05/01 08:15:41;;;;;;;2.97;0.70;;;14.10;99.90;;;;;;5053756;28;20102;-76
2023/05/01 08:18:08;;;;;;;2.63;0.77;;;14.10;99.90;;;;;;5052248;28;20422;-76
2023/05/01 08:20:35;;;;;;;1.48;0.57;;;14.20;99.90;;;;;;5035583;28;20110;-76
2023/05/01 08:23:01;;;;;;;1.02;0.60;;;14.40;99.90;;;;;;5052761;28;20048;-76
2023/05/01 08:25:27;;;;;;;3.65;0.60;;;14.60;99.90;;;;;;5053165;28;20461;-76
2023/05/01 08:27:52;;;;;;;2.30;0.52;;;14.80;99.90;;;;;;5052803;28;20024;-77
2023/05/01 08:30:18;;;;;;;1.25;0.50;;;14.90;99.90;;;;;;5053219;28;20045;-76
2023/05/01 08:32:44;;;;;;;3.28;0.60;;;14.80;99.90;;;;;;5052519;28;20053;-76
2023/05/01 08:35:10;;;;;;;5.35;1.25;;;14.90;99.90;;;;;;5052356;28;20033;-77
2023/05/01 08:37:36;;;;;;;1.45;0.50;;;15.00;99.90;;;;;;5053037;28;20025;-76
2023/05/01 08:40:07;;;;;;;2.30;0.70;;;15.20;99.90;;;;;;5051624;28;20079;-77
2023/05/01 08:42:35;;;;;;;2.30;0.70;;;15.20;99.90;;;;;;5053015;28;20028;-77
2023/05/01 08:45:03;;;;;;;1.27;0.40;;;15.30;99.90;;;;;;5051971;28;20386;-78
2023/05/01 08:47:29;;;;;;;0.98;0.50;;;15.30;99.90;;;;;;5052925;28;20522;-77
2023/05/01 08:49:56;;;;;;;2.13;0.75;;;15.40;99.90;;;;;;5052612;28;20082;-77
2023/05/01 08:52:25;;;;;;;3.17;0.90;;;15.50;99.90;;;;;;5053397;28;20075;-77
2023/05/01 08:54:55;;;;;;;4.30;0.90;;;15.40;99.90;;;;;;5052549;28;20090;-78
2023/05/01 08:57:22;;;;;;;6.60;1.48;;;15.30;99.90;;;;;;5052928;28;20025;-77
2023/05/01 08:59:50;;;;;;;8.68;2.70;;;15.50;99.90;;;;;;5052544;28;20112;-78
2023/05/01 09:02:16;;;;;;;3.65;1.05;;;15.30;99.90;;;;;;5052922;28;20056;-77
2023/05/01 09:04:43;;;;;;;2.13;1.05;;;15.30;99.90;;;;;;5052877;28;20021;-77
2023/05/01 09:07:09;;;;;;;3.33;1.10;;;15.20;99.90;;;;;;5052307;28;20017;-77
2023/05/01 09:09:35;;;;;;;1.42;1.00;;;15.10;99.90;;;;;;5052648;28;20497;-76
2023/05/01 09:12:20;;;;;;;3.10;1.10;;;15.10;99.90;;;;;;5052063;28;20028;-76
2023/05/01 09:14:46;;;;;;;4.65;1.35;;;15.20;99.90;;;;;;5052441;28;20047;-76
2023/05/01 09:17:12;;;;;;;6.80;2.17;;;15.20;99.90;;;;;;5051948;28;20029;-76
2023/05/01 09:19:39;;;;;;;2.08;0.80;;;15.30;99.90;;;;;;5052178;28;20021;-75
2023/05/01 09:22:05;;;;;;;2.05;1.00;;;15.50;99.90;;;;;;5051884;28;20609;-76
2023/05/01 09:24:32;;;;;;;3.00;0.85;;;15.50;99.90;;;;;;5052556;28;20051;-78
2023/05/01 09:26:58;;;;;;;1.35;0.65;;;15.70;99.90;;;;;;5048696;28;20032;-77
2023/05/01 09:29:44;;;;;;;6.07;1.80;;;15.70;99.90;;;;;;5053028;28;20061;-76
2023/05/01 09:32:26;;;;;;;2.65;1.33;;;15.70;99.90;;;;;;5052391;28;20021;-77
2023/05/01 09:34:53;;;;;;;4.43;1.33;;;15.80;99.90;;;;;;5051806;28;20040;-78
2023/05/01 09:37:29;;;;;;;3.72;1.17;;;15.80;99.90;;;;;;5052238;28;20044;-76
2023/05/01 09:40:11;;;;;;;3.35;1.00;;;15.60;99.90;;;;;;5051958;28;20462;-77
2023/05/01 09:42:39;;;;;;;3.17;1.10;;;15.70;99.90;;;;;;5052381;28;20033;-77
2023/05/01 09:45:15;;;;;;;1.50;0.73;;;15.70;99.90;;;;;;5052292;28;20509;-77
2023/05/01 09:47:42;;;;;;;4.80;1.52;;;15.50;99.90;;;;;;5052452;28;20024;-78
2023/05/01 09:50:09;;;;;;;3.28;1.10;;;15.50;99.90;;;;;;5052297;28;20350;-77
2023/05/01 09:52:35;;;;;;;3.92;1.45;;;15.30;99.90;;;;;;5055401;28;20482;-77
2023/05/01 09:55:15;;;;;;;3.40;0.88;;;15.20;99.90;;;;;;5055767;28;20095;-78
2023/05/01 09:57:44;;;;;;;0.90;0.50;;;15.60;99.90;;;;;;5038468;28;20038;-77
2023/05/01 10:00:14;;;;;;;2.60;0.82;;;15.60;99.90;;;;;;5055643;28;20107;-78
2023/05/01 10:02:42;;;;;;;0.55;0.43;;;15.60;99.90;;;;;;5056338;28;20024;-77
2023/05/01 10:05:09;;;;;;;2.83;1.20;;;15.60;99.90;;;;;;5055514;28;20025;-78
2023/05/01 10:07:35;;;;;;;2.63;0.70;;;15.70;99.90;;;;;;5055832;28;20029;-77
2023/05/01 10:10:20;;;;;;;1.30;0.70;;;15.80;99.90;;;;;;5055145;28;20369;-78
2023/05/01 10:12:47;;;;;;;3.35;1.25;;;16.00;99.90;;;;;;5055511;28;20029;-78
2023/05/01 10:15:14;;;;;;;2.20;0.60;;;16.10;99.90;;;;;;5055206;28;20025;-77
2023/05/01 10:17:42;;;;;;;2.53;0.77;;;16.20;99.90;;;;;;5038636;28;20423;-77
2023/05/01 10:20:11;;;;;;;1.15;0.70;;;16.20;99.90;;;;;;5055445;28;20115;-78
2023/05/01 10:22:37;;;;;;;2.50;0.80;;;16.10;99.90;;;;;;5055475;28;20082;-78
2023/05/01 10:25:06;;;;;;;1.35;0.60;;;16.20;99.90;;;;;;5055277;28;20032;-79
2023/05/01 10:27:33;;;;;;;1.63;0.80;;;16.30;99.90;;;;;;5021951;28;20025;-77
2023/05/01 10:30:06;;;;;;;3.40;1.25;;;16.30;99.90;;;;;;5055456;28;20064;-77
2023/05/01 10:32:32;;;;;;;1.65;0.70;;;16.40;99.90;;;;;;5055499;28;20029;-77
2023/05/01 10:35:03;;;;;;;3.55;0.55;;;16.30;99.90;;;;;;5054539;28;20033;-77
2023/05/01 10:37:32;;;;;;;2.13;0.88;;;16.50;99.90;;;;;;5055124;28;20037;-78
2023/05/01 10:39:58;;;;;;;0.82;0.47;;;16.70;99.90;;;;;;5036539;28;20421;-77
2023/05/01 10:42:25;;;;;;;2.05;0.70;;;16.70;99.90;;;;;;5055012;28;20032;-78
2023/05/01 10:44:50;;;;;;;2.28;0.70;;;16.90;99.90;;;;;;5055645;28;20103;-77
2023/05/01 10:47:30;;;;;;;1.45;0.70;;;17.00;99.90;;;;;;5038331;28;20508;-77
2023/05/01 10:50:07;;;;;;;2.28;0.55;;;17.10;99.90;;;;;;5055027;28;20025;-78
2023/05/01 10:53:19;;;;;;;2.35;0.60;;;17.10;99.90;;;;;;5054760;28;20068;-77
2023/05/01 10:55:48;;;;;;;5.60;0.80;;;17.00;99.90;;;;;;5037057;28;20110;-77
2023/05/01 10:58:50;;;;;;;1.45;0.60;;;16.80;99.90;;;;;;5053945;28;20040;-77
2023/05/01 11:01:30;;;;;;;1.45;0.63;;;16.60;99.90;;;;;;5037402;28;20056;-77
2023/05/01 11:04:15;;;;;;;0.95;0.50;;;16.40;99.90;;;;;;5054625;28;20505;-77
2023/05/01 11:07:00;;;;;;;2.58;0.95;;;16.30;99.90;;;;;;5055243;28;20048;-76
2023/05/01 11:09:43;;;;;;;1.20;0.70;;;16.40;99.90;;;;;;5055064;28;20485;-76
2023/05/01 11:12:13;;;;;;;0.80;0.60;;;16.20;99.90;;;;;;5054226;28;20062;-77
2023/05/01 11:15:04;;;;;;;0.82;0.68;;;16.30;99.90;;;;;;5054440;28;20036;-77
2023/05/01 11:17:39;;;;;;;1.17;0.60;;;16.50;99.90;;;;;;5054324;28;20029;-77
2023/05/01 11:20:06;;;;;;;1.10;0.50;;;16.50;99.90;;;;;;5053539;28;20103;-78
2023/05/01 11:22:33;;;;;;;1.23;0.57;;;16.40;99.90;;;;;;5054258;28;20489;-77
2023/05/01 11:25:00;;;;;;;0.88;0.60;;;16.30;99.90;;;;;;5053674;28;20528;-77
2023/05/01 11:27:26;;;;;;;0.60;0.60;;;16.20;99.90;;;;;;5054222;28;20021;-77
2023/05/01 11:29:52;;;;;;;1.85;0.50;;;16.20;99.90;;;;;;5054731;28;20391;-78
2023/05/01 11:32:28;;;;;;;0.40;0.40;;;16.10;99.90;;;;;;5054054;28;20640;-77
2023/05/01 11:34:55;;;;;;;2.00;0.93;;;16.20;99.90;;;;;;5054845;28;20394;-77
2023/05/01 11:37:43;;;;;;;3.47;0.80;;;16.20;99.90;;;;;;5054510;28;20017;-77
2023/05/01 11:40:28;;;;;;;2.63;0.98;;;16.40;99.90;;;;;;5053947;28;20031;-77
2023/05/01 11:43:07;;;;;;;1.27;0.60;;;16.40;99.90;;;;;;5054480;28;20044;-77
2023/05/01 11:45:36;;;;;;;0.75;0.60;;;16.50;99.90;;;;;;5054355;28;20494;-78
2023/05/01 11:48:03;;;;;;;1.88;0.65;;;16.70;99.90;;;;;;5053346;28;20382;-78
2023/05/01 11:50:34;;;;;;;1.65;0.60;;;16.90;99.90;;;;;;5053766;28;20108;-77
2023/05/01 11:53:00;;;;;;;2.20;0.60;;;17.00;99.90;;;;;;5053812;28;20029;-78
2023/05/01 11:55:33;;;;;;;1.33;0.77;;;17.30;99.90;;;;;;5036135;28;20033;-78
2023/05/01 11:58:00;;;;;;;0.60;0.60;;;17.40;99.90;;;;;;5052380;28;20083;-78
2023/05/01 12:00:26;;;;;;;0.75;0.50;;;17.40;99.90;;;;;;5054235;28;20032;-78
2023/05/01 12:03:00;;;;;;;1.17;0.80;;;17.40;99.90;;;;;;5053521;28;20029;-78
2023/05/01 12:05:27;;;;;;;5.50;3.15;;;17.40;99.90;;;;;;5035805;28;20025;-78
2023/05/01 12:08:11;;;;;;;1.75;0.80;;;17.40;99.90;;;;;;5033851;28;20091;-78
2023/05/01 12:10:42;;;;;;;0.85;0.70;;;17.60;99.90;;;;;;5033505;28;20087;-78
2023/05/01 12:13:10;;;;;;;1.05;0.50;;;17.60;99.90;;;;;;5032641;28;20060;-78
2023/05/01 12:15:39;;;;;;;1.20;0.68;;;17.60;99.90;;;;;;5033238;28;20099;-78
2023/05/01 12:18:05;;;;;;;1.38;0.40;;;17.70;99.90;;;;;;5015388;28;20029;-78
2023/05/01 12:20:36;;;;;;;0.80;0.40;;;17.60;99.90;;;;;;5033428;28;20027;-78
2023/05/01 12:23:04;;;;;;;2.70;0.60;;;17.50;99.90;;;;;;5033016;28;20087;-78
2023/05/01 12:25:33;;;;;;;1.45;0.55;;;17.50;99.90;;;;;;5033622;28;20021;-78
2023/05/01 12:28:18;;;;;;;1.75;0.68;;;17.40;99.90;;;;;;5015870;28;20025;-77
2023/05/01 12:30:47;;;;;;;0.73;0.73;;;17.30;99.90;;;;;;5033499;28;20099;-77
2023/05/01 12:33:15;;;;;;;1.17;0.63;;;17.30;99.90;;;;;;5032686;28;20044;-78
2023/05/01 12:35:45;;;;;;;0.65;0.65;;;17.30;99.90;;;;;;5015649;28;20029;-77
2023/05/01 12:38:17;;;;;;;1.60;0.80;;;17.30;99.90;;;;;;5015231;28;20518;-77
2023/05/01 12:40:57;;;;;;;0.40;0.40;;;17.50;99.90;;;;;;5033460;28;20028;-77
2023/05/01 12:43:36;;;;;;;1.67;0.82;;;17.60;99.90;;;;;;5032932;28;20029;-77
2023/05/01 12:46:03;;;;;;;2.78;0.40;;;17.50;99.90;;;;;;5033219;28;20030;-78
2023/05/01 12:48:31;;;;;;;2.17;0.60;;;17.50;99.90;;;;;;5033387;28;20021;-77
2023/05/01 12:50:57;;;;;;;1.20;0.55;;;17.50;99.90;;;;;;5033241;28;20109;-77
2023/05/01 12:53:24;;;;;;;1.33;0.70;;;17.60;99.90;;;;;;5038610;28;20277;-77